RJFR/KKJ METAR and TAF weather

Enter ICAO airport designator
Station Type Date Time Source
RJFR METAR 2019/05/25 15:00 UTC NOAA

RJFR 251500Z 36003KT CAVOK 20/12 Q1017


Station Type Date Time Source
RJFR Decoded METAR 2019/05/25 15:00 UTC NOAA

Kitakyushu Airport, Japan (RJFR) 33-50N 130-57E 6M
May 25, 2019 - 11:00 AM EDT / 2019.05.25 1500 UTC
Wind: from the N (360 degrees) at 3 MPH (3 KT):0
Visibility: greater than 7 mile(s):0
Temperature: 68 F (20 C)
Dew Point: 53 F (12 C)
Relative Humidity: 59%
Pressure (altimeter): 30.03 in. Hg (1017 hPa)
ob: RJFR 251500Z 36003KT CAVOK 20/12 Q1017
cycle: 15

Station Type Date Time Source
RJFR TAF 2019/05/25 12:30 UTC NOAA

TAF RJFR 251106Z 2512/2618 25004KT CAVOK
BECMG 2513/2515 06005KT
BECMG 2600/2603 10005KT
BECMG 2606/2609 29005KT
BECMG 2615/2618 11004KT

Example: see airport list